Convoy, OH

10:48 AM EST on December 20, 2014 (GMT -0500)
OHDOT 5- US30 @ SR49 North | Change Station
CLOSE
Current Station
Personal Weather Station
Location: Convoy, OH
Elevation: 774 ft
Nearby Weather Stations

Elev 774 ft 40.95 °N, 84.73 °W | Updated 1 hour ago

Overcast
Overcast
27.0 °F
Feels Like 27.0 °F
N
2.0
Wind Variable Wind from East
Gusts 4.0 mph

Today
High -- | Low -- °F
--% Chance of Precip.
Yesterday
High -- | Low -- °F
Precip. -- in
7:59 AM 5:13 PM
Waning Crescent, 3% visible
Pressure 30.33 in
Visibility 3.0 miles
Clouds Overcast 2900 ft
Dew Point 25.0 °F
Humidity 92%
Rainfall -999.00 in
Snow Depth Not available.
UV 0 out of 12
Pollen .10 out of 12
Air Quality Not available.
Flu Activity Not available.
METAR KFWA 201454Z 00000KT 3SM BR OVC029 M02/M04 A3030 RMK AO2 SLP271 T10221039 51010

More Conditions Fewer Conditions

Pressure 30.33 in
Visibility 3.0 miles
Clouds Overcast 2900 ft
Dew Point 25.0 °F
Humidity 92%
Rainfall -999.00 in
Snow Depth Not available.
UV 0 out of 12
Pollen .10 out of 12
Air Quality Not available.
Flu Activity Not available.
METAR KFWA 201454Z 00000KT 3SM BR OVC029 M02/M04 A3030 RMK AO2 SLP271 T10221039 51010

More Conditions Fewer Conditions

10-Day Weather Forecast

Almanac

Astronomy

Dec. 20, 2014 Rise Set
Actual Time
Civil Twilight
Nautical Twilight
Astronomical Twilight
Moon
Length of Visible Light
Length of Day
Tomorrow will be .
, % of the Moon is Illuminated

Today's Extremes

State Highs State Lows

Community

WunderPhotos

Upload Photos

1,779,211 photos uploaded!

WunderBlogs® & News

Nearby

Air Quality

  Air Quality AQ Index Pollutant
Not available.

Snow Depth

Station Depth Elevation

Earthquake Activity

City Distance Mag. Time & Date
Minimum magnitude displayed is 2.5.

Coastal Water Temperatures

Place Temperature

Nearby Weather Stations